sensor_id;sensor_type;location;lat;lon;timestamp;pressure;altitude;pressure_sealevel;temperature;humidity
6423;BME280;3244;42.708;23.288;2023-05-20T00:01:10;95356.53;;;14.30;82.96
6423;BME280;3244;42.708;23.288;2023-05-20T00:03:36;95358.59;;;14.22;83.32
6423;BME280;3244;42.708;23.288;2023-05-20T00:06:03;95347.97;;;14.11;83.53
6423;BME280;3244;42.708;23.288;2023-05-20T00:08:30;95344.94;;;14.03;83.67
6423;BME280;3244;42.708;23.288;2023-05-20T00:10:56;95351.06;;;13.99;84.18
6423;BME280;3244;42.708;23.288;2023-05-20T00:13:24;95351.44;;;13.90;84.43
6423;BME280;3244;42.708;23.288;2023-05-20T00:15:51;95345.56;;;13.88;84.23
6423;BME280;3244;42.708;23.288;2023-05-20T00:18:18;95347.44;;;13.84;84.28
6423;BME280;3244;42.708;23.288;2023-05-20T00:20:45;95347.75;;;13.77;84.34
6423;BME280;3244;42.708;23.288;2023-05-20T00:23:11;95341.81;;;13.76;84.48
6423;BME280;3244;42.708;23.288;2023-05-20T00:25:38;95342.78;;;13.74;84.74
6423;BME280;3244;42.708;23.288;2023-05-20T00:28:05;95339.63;;;13.67;84.55
6423;BME280;3244;42.708;23.288;2023-05-20T00:30:33;95336.53;;;13.60;85.20
6423;BME280;3244;42.708;23.288;2023-05-20T00:33:00;95329.00;;;13.57;85.25
6423;BME280;3244;42.708;23.288;2023-05-20T00:35:27;95327.69;;;13.68;84.36
6423;BME280;3244;42.708;23.288;2023-05-20T00:37:53;95328.78;;;13.62;84.49
6423;BME280;3244;42.708;23.288;2023-05-20T00:40:20;95331.53;;;13.57;84.96
6423;BME280;3244;42.708;23.288;2023-05-20T00:42:47;95339.19;;;13.57;84.96
6423;BME280;3244;42.708;23.288;2023-05-20T00:45:14;95334.28;;;13.53;84.80
6423;BME280;3244;42.708;23.288;2023-05-20T00:47:42;95330.06;;;13.52;85.02
6423;BME280;3244;42.708;23.288;2023-05-20T00:50:10;95320.50;;;13.57;84.33
6423;BME280;3244;42.708;23.288;2023-05-20T00:52:36;95317.88;;;13.58;84.32
6423;BME280;3244;42.708;23.288;2023-05-20T00:55:06;95317.72;;;13.61;84.22
6423;BME280;3244;42.708;23.288;2023-05-20T00:57:33;95326.88;;;13.67;83.85
6423;BME280;3244;42.708;23.288;2023-05-20T01:00:00;95320.94;;;13.67;84.07
6423;BME280;3244;42.708;23.288;2023-05-20T01:02:27;95316.84;;;13.62;83.84
6423;BME280;3244;42.708;23.288;2023-05-20T01:04:55;95304.84;;;13.44;84.97
6423;BME280;3244;42.708;23.288;2023-05-20T01:07:23;95314.53;;;13.36;85.10
6423;BME280;3244;42.708;23.288;2023-05-20T01:09:50;95320.66;;;13.32;85.33
6423;BME280;3244;42.708;23.288;2023-05-20T01:12:21;95320.34;;;13.18;86.06
6423;BME280;3244;42.708;23.288;2023-05-20T01:15:04;95319.66;;;13.13;85.90
6423;BME280;3244;42.708;23.288;2023-05-20T01:17:36;95318.22;;;13.29;85.45
6423;BME280;3244;42.708;23.288;2023-05-20T01:20:07;95320.84;;;13.27;85.79
6423;BME280;3244;42.708;23.288;2023-05-20T01:22:37;95320.78;;;13.29;85.75
6423;BME280;3244;42.708;23.288;2023-05-20T01:25:04;95324.56;;;13.19;85.68
6423;BME280;3244;42.708;23.288;2023-05-20T01:27:31;95323.00;;;13.15;86.11
6423;BME280;3244;42.708;23.288;2023-05-20T01:29:58;95332.44;;;13.13;86.58
6423;BME280;3244;42.708;23.288;2023-05-20T01:32:27;95330.25;;;13.04;86.91
6423;BME280;3244;42.708;23.288;2023-05-20T01:34:56;95315.06;;;13.01;86.88
6423;BME280;3244;42.708;23.288;2023-05-20T01:37:25;95321.59;;;13.08;86.50
6423;BME280;3244;42.708;23.288;2023-05-20T01:39:54;95310.22;;;13.16;86.36
6423;BME280;3244;42.708;23.288;2023-05-20T01:42:22;95320.19;;;13.22;86.09
6423;BME280;3244;42.708;23.288;2023-05-20T01:44:52;95327.00;;;13.22;86.44
6423;BME280;3244;42.708;23.288;2023-05-20T01:47:19;95319.66;;;13.13;86.61
6423;BME280;3244;42.708;23.288;2023-05-20T01:49:45;95324.63;;;13.17;86.08
6423;BME280;3244;42.708;23.288;2023-05-20T01:52:13;95313.06;;;13.09;86.82
6423;BME280;3244;42.708;23.288;2023-05-20T01:54:40;95313.13;;;13.07;86.99
6423;BME280;3244;42.708;23.288;2023-05-20T01:57:08;95320.88;;;13.04;86.60
6423;BME280;3244;42.708;23.288;2023-05-20T01:59:35;95316.66;;;13.03;87.06
6423;BME280;3244;42.708;23.288;2023-05-20T02:02:02;95316.72;;;13.02;87.01
6423;BME280;3244;42.708;23.288;2023-05-20T02:04:29;95318.38;;;13.03;86.83
6423;BME280;3244;42.708;23.288;2023-05-20T02:06:55;95325.28;;;13.01;86.81
6423;BME280;3244;42.708;23.288;2023-05-20T02:09:22;95302.97;;;13.06;86.14
6423;BME280;3244;42.708;23.288;2023-05-20T02:11:49;95300.91;;;13.14;85.62
6423;BME280;3244;42.708;23.288;2023-05-20T02:14:17;95299.53;;;13.07;85.70
6423;BME280;3244;42.708;23.288;2023-05-20T02:16:44;95301.31;;;13.05;86.09
6423;BME280;3244;42.708;23.288;2023-05-20T02:19:11;95310.63;;;13.06;86.17
6423;BME280;3244;42.708;23.288;2023-05-20T02:21:38;95304.91;;;12.99;85.91
6423;BME280;3244;42.708;23.288;2023-05-20T02:24:05;95297.63;;;12.90;85.88
6423;BME280;3244;42.708;23.288;2023-05-20T02:26:32;95295.88;;;12.90;85.49
6423;BME280;3244;42.708;23.288;2023-05-20T02:28:59;95289.78;;;12.94;84.96
6423;BME280;3244;42.708;23.288;2023-05-20T02:31:27;95296.19;;;13.05;84.66
6423;BME280;3244;42.708;23.288;2023-05-20T02:33:53;95299.75;;;13.01;85.38
6423;BME280;3244;42.708;23.288;2023-05-20T02:36:20;95294.16;;;12.91;86.11
6423;BME280;3244;42.708;23.288;2023-05-20T02:38:47;95288.84;;;12.97;85.08
6423;BME280;3244;42.708;23.288;2023-05-20T02:41:14;95301.06;;;12.89;85.91
6423;BME280;3244;42.708;23.288;2023-05-20T02:43:40;95299.53;;;12.85;86.03
6423;BME280;3244;42.708;23.288;2023-05-20T02:46:09;95300.28;;;12.87;85.60
6423;BME280;3244;42.708;23.288;2023-05-20T02:48:37;95302.03;;;12.86;86.03
6423;BME280;3244;42.708;23.288;2023-05-20T02:51:04;95295.38;;;12.82;85.72
6423;BME280;3244;42.708;23.288;2023-05-20T02:53:31;95294.84;;;12.74;86.39
6423;BME280;3244;42.708;23.288;2023-05-20T02:55:57;95298.09;;;12.78;86.22
6423;BME280;3244;42.708;23.288;2023-05-20T02:58:25;95303.81;;;12.84;86.26
6423;BME280;3244;42.708;23.288;2023-05-20T03:00:53;95302.81;;;12.87;85.94
6423;BME280;3244;42.708;23.288;2023-05-20T03:03:22;95300.09;;;12.91;85.97
6423;BME280;3244;42.708;23.288;2023-05-20T03:05:50;95302.47;;;12.96;85.23
6423;BME280;3244;42.708;23.288;2023-05-20T03:08:19;95308.66;;;12.90;85.27
6423;BME280;3244;42.708;23.288;2023-05-20T03:10:46;95315.53;;;12.88;85.84
6423;BME280;3244;42.708;23.288;2023-05-20T03:13:12;95328.94;;;12.93;85.29
6423;BME280;3244;42.708;23.288;2023-05-20T03:15:39;95321.72;;;13.05;85.29
6423;BME280;3244;42.708;23.288;2023-05-20T03:18:06;95325.03;;;13.07;84.65
6423;BME280;3244;42.708;23.288;2023-05-20T03:20:34;95333.47;;;13.09;84.42
6423;BME280;3244;42.708;23.288;2023-05-20T03:23:04;95333.69;;;13.03;84.46
6423;BME280;3244;42.708;23.288;2023-05-20T03:25:31;95342.84;;;13.08;84.78
6423;BME280;3244;42.708;23.288;2023-05-20T03:27:57;95328.38;;;13.31;84.65
6423;BME280;3244;42.708;23.288;2023-05-20T03:30:24;95326.91;;;13.86;83.05
6423;BME280;3244;42.708;23.288;2023-05-20T03:32:52;95320.28;;;14.41;80.65
6423;BME280;3244;42.708;23.288;2023-05-20T03:35:19;95328.31;;;15.09;77.45
6423;BME280;3244;42.708;23.288;2023-05-20T03:37:45;95327.16;;;15.50;75.09
6423;BME280;3244;42.708;23.288;2023-05-20T03:40:13;95337.22;;;15.72;73.89
6423;BME280;3244;42.708;23.288;2023-05-20T03:42:40;95337.19;;;15.89;73.31
6423;BME280;3244;42.708;23.288;2023-05-20T03:45:07;95332.00;;;16.08;72.41
6423;BME280;3244;42.708;23.288;2023-05-20T03:47:34;95331.16;;;15.90;72.75
6423;BME280;3244;42.708;23.288;2023-05-20T03:50:01;95338.47;;;15.98;71.43
6423;BME280;3244;42.708;23.288;2023-05-20T03:52:27;95340.44;;;15.93;72.00
6423;BME280;3244;42.708;23.288;2023-05-20T03:54:54;95333.88;;;16.05;71.96
6423;BME280;3244;42.708;23.288;2023-05-20T03:57:22;95347.56;;;16.21;71.82
6423;BME280;3244;42.708;23.288;2023-05-20T03:59:49;95350.16;;;16.37;71.35
6423;BME280;3244;42.708;23.288;2023-05-20T04:02:16;95349.63;;;16.63;70.43
6423;BME280;3244;42.708;23.288;2023-05-20T04:04:43;95354.25;;;16.74;70.08
6423;BME280;3244;42.708;23.288;2023-05-20T04:07:09;95356.50;;;16.95;69.69
6423;BME280;3244;42.708;23.288;2023-05-20T04:09:37;95363.94;;;17.31;68.66
6423;BME280;3244;42.708;23.288;2023-05-20T04:12:04;95358.75;;;17.79;66.91
6423;BME280;3244;42.708;23.288;2023-05-20T04:14:32;95355.34;;;18.22;65.81
6423;BME280;3244;42.708;23.288;2023-05-20T04:17:02;95357.38;;;18.88;63.66
6423;BME280;3244;42.708;23.288;2023-05-20T04:19:30;95352.72;;;19.49;61.67
6423;BME280;3244;42.708;23.288;2023-05-20T04:21:56;95355.34;;;20.01;60.19
6423;BME280;3244;42.708;23.288;2023-05-20T04:24:24;95354.13;;;20.57;58.89
6423;BME280;3244;42.708;23.288;2023-05-20T04:26:52;95349.72;;;21.21;56.71
6423;BME280;3244;42.708;23.288;2023-05-20T04:29:18;95344.69;;;21.79;54.74
6423;BME280;3244;42.708;23.288;2023-05-20T04:31:47;95340.63;;;22.56;52.36
6423;BME280;3244;42.708;23.288;2023-05-20T04:34:13;95342.34;;;23.33;50.50
6423;BME280;3244;42.708;23.288;2023-05-20T04:36:43;95346.53;;;24.41;47.56
6423;BME280;3244;42.708;23.288;2023-05-20T04:39:10;95339.41;;;25.04;45.99
6423;BME280;3244;42.708;23.288;2023-05-20T04:41:38;95344.44;;;25.46;44.93
6423;BME280;3244;42.708;23.288;2023-05-20T04:44:04;95342.97;;;25.63;44.24
6423;BME280;3244;42.708;23.288;2023-05-20T04:46:31;95345.25;;;25.56;44.38
6423;BME280;3244;42.708;23.288;2023-05-20T04:48:59;95343.03;;;25.32;44.49
6423;BME280;3244;42.708;23.288;2023-05-20T04:51:26;95358.91;;;25.20;44.77
6423;BME280;3244;42.708;23.288;2023-05-20T04:53:53;95352.88;;;25.19;44.78
6423;BME280;3244;42.708;23.288;2023-05-20T04:56:20;95344.78;;;25.13;44.70
6423;BME280;3244;42.708;23.288;2023-05-20T04:58:46;95350.38;;;24.98;45.03
6423;BME280;3244;42.708;23.288;2023-05-20T05:01:13;95349.81;;;24.95;45.14
6423;BME280;3244;42.708;23.288;2023-05-20T05:03:40;95351.69;;;24.93;45.54
6423;BME280;3244;42.708;23.288;2023-05-20T05:06:08;95349.84;;;24.53;46.42
6423;BME280;3244;42.708;23.288;2023-05-20T05:08:35;95349.56;;;24.47;46.64
6423;BME280;3244;42.708;23.288;2023-05-20T05:11:04;95349.09;;;24.62;45.78
6423;BME280;3244;42.708;23.288;2023-05-20T05:13:30;95354.16;;;24.64;46.52
6423;BME280;3244;42.708;23.288;2023-05-20T05:15:58;95346.69;;;24.80;45.30
6423;BME280;3244;42.708;23.288;2023-05-20T05:18:25;95350.91;;;25.02;45.40
6423;BME280;3244;42.708;23.288;2023-05-20T05:20:58;95350.19;;;25.40;44.46
6423;BME280;3244;42.708;23.288;2023-05-20T05:23:26;95352.78;;;25.40;44.54
6423;BME280;3244;42.708;23.288;2023-05-20T05:25:52;95341.66;;;25.19;45.72
6423;BME280;3244;42.708;23.288;2023-05-20T05:28:19;95345.72;;;24.81;45.86
6423;BME280;3244;42.708;23.288;2023-05-20T05:30:46;95343.97;;;24.82;46.08
6423;BME280;3244;42.708;23.288;2023-05-20T05:33:13;95339.00;;;24.69;46.03
6423;BME280;3244;42.708;23.288;2023-05-20T05:35:40;95335.66;;;24.57;46.71
6423;BME280;3244;42.708;23.288;2023-05-20T05:38:06;95332.75;;;24.81;46.14
6423;BME280;3244;42.708;23.288;2023-05-20T05:40:34;95335.72;;;25.66;44.64
6423;BME280;3244;42.708;23.288;2023-05-20T05:43:01;95327.25;;;26.59;42.71
6423;BME280;3244;42.708;23.288;2023-05-20T05:45:28;95329.88;;;26.50;42.23
6423;BME280;3244;42.708;23.288;2023-05-20T05:47:54;95340.94;;;25.95;43.50
6423;BME280;3244;42.708;23.288;2023-05-20T05:50:21;95332.25;;;25.56;44.37
6423;BME280;3244;42.708;23.288;2023-05-20T05:52:48;95329.91;;;25.34;45.23
6423;BME280;3244;42.708;23.288;2023-05-20T05:55:15;95342.72;;;25.95;44.69
6423;BME280;3244;42.708;23.288;2023-05-20T05:57:43;95328.50;;;28.00;40.97
6423;BME280;3244;42.708;23.288;2023-05-20T06:00:11;95313.44;;;30.70;34.15
6423;BME280;3244;42.708;23.288;2023-05-20T06:02:38;95320.19;;;32.71;30.39
6423;BME280;3244;42.708;23.288;2023-05-20T06:05:05;95307.34;;;35.11;27.37
6423;BME280;3244;42.708;23.288;2023-05-20T06:07:32;95306.56;;;37.48;23.46
6423;BME280;3244;42.708;23.288;2023-05-20T06:09:59;95300.94;;;39.00;22.12
6423;BME280;3244;42.708;23.288;2023-05-20T06:12:26;95297.66;;;38.98;21.17
6423;BME280;3244;42.708;23.288;2023-05-20T06:14:54;95289.31;;;39.31;21.56
6423;BME280;3244;42.708;23.288;2023-05-20T06:17:20;95290.72;;;40.70;20.54
6423;BME280;3244;42.708;23.288;2023-05-20T06:19:47;95292.84;;;41.32;18.81
6423;BME280;3244;42.708;23.288;2023-05-20T06:22:14;95286.88;;;41.98;18.58
6423;BME280;3244;42.708;23.288;2023-05-20T06:24:40;95292.66;;;43.18;18.10
6423;BME280;3244;42.708;23.288;2023-05-20T06:27:07;95283.56;;;44.16;17.11
6423;BME280;3244;42.708;23.288;2023-05-20T06:29:34;95284.16;;;44.97;16.42
6423;BME280;3244;42.708;23.288;2023-05-20T06:32:02;95284.34;;;45.48;15.67
6423;BME280;3244;42.708;23.288;2023-05-20T06:34:28;95278.56;;;46.07;15.20
6423;BME280;3244;42.708;23.288;2023-05-20T06:36:55;95278.03;;;46.00;15.06
6423;BME280;3244;42.708;23.288;2023-05-20T06:39:22;95266.31;;;45.33;15.12
6423;BME280;3244;42.708;23.288;2023-05-20T06:41:48;95264.44;;;45.34;15.16
6423;BME280;3244;42.708;23.288;2023-05-20T06:44:17;95260.84;;;46.41;14.30
6423;BME280;3244;42.708;23.288;2023-05-20T06:46:44;95264.06;;;46.18;14.90
6423;BME280;3244;42.708;23.288;2023-05-20T06:49:12;95254.38;;;46.53;14.13
6423;BME280;3244;42.708;23.288;2023-05-20T06:51:38;95251.38;;;46.59;14.19
6423;BME280;3244;42.708;23.288;2023-05-20T06:54:05;95255.34;;;46.92;13.73
6423;BME280;3244;42.708;23.288;2023-05-20T06:56:32;95255.81;;;47.20;13.96
6423;BME280;3244;42.708;23.288;2023-05-20T06:58:58;95262.91;;;46.85;13.90
6423;BME280;3244;42.708;23.288;2023-05-20T07:01:25;95266.28;;;45.18;14.42
6423;BME280;3244;42.708;23.288;2023-05-20T07:03:52;95261.56;;;44.88;15.54
6423;BME280;3244;42.708;23.288;2023-05-20T07:06:20;95265.22;;;44.72;15.59
6423;BME280;3244;42.708;23.288;2023-05-20T07:08:46;95260.50;;;43.13;15.94
6423;BME280;3244;42.708;23.288;2023-05-20T07:11:13;95261.97;;;42.26;16.63
6423;BME280;3244;42.708;23.288;2023-05-20T07:13:40;95256.38;;;42.11;16.97
6423;BME280;3244;42.708;23.288;2023-05-20T07:16:06;95250.69;;;42.96;16.54
6423;BME280;3244;42.708;23.288;2023-05-20T07:18:33;95250.97;;;43.97;15.96
6423;BME280;3244;42.708;23.288;2023-05-20T07:21:00;95247.69;;;44.59;15.45
6423;BME280;3244;42.708;23.288;2023-05-20T07:23:28;95251.69;;;46.37;14.68
6423;BME280;3244;42.708;23.288;2023-05-20T07:25:55;95249.97;;;46.92;13.16
6423;BME280;3244;42.708;23.288;2023-05-20T07:28:22;95249.50;;;45.84;14.07
6423;BME280;3244;42.708;23.288;2023-05-20T07:30:48;95247.47;;;44.66;14.47
6423;BME280;3244;42.708;23.288;2023-05-20T07:33:15;95247.25;;;42.40;15.64
6423;BME280;3244;42.708;23.288;2023-05-20T07:35:42;95237.97;;;40.84;17.05
6423;BME280;3244;42.708;23.288;2023-05-20T07:38:09;95251.13;;;42.16;16.22
6423;BME280;3244;42.708;23.288;2023-05-20T07:40:38;95243.16;;;42.38;16.23
6423;BME280;3244;42.708;23.288;2023-05-20T07:43:05;95250.94;;;43.92;15.66
6423;BME280;3244;42.708;23.288;2023-05-20T07:45:33;95248.66;;;45.48;14.06
6423;BME280;3244;42.708;23.288;2023-05-20T07:48:00;95240.59;;;44.38;14.29
6423;BME280;3244;42.708;23.288;2023-05-20T07:50:27;95248.44;;;41.14;16.46
6423;BME280;3244;42.708;23.288;2023-05-20T07:52:53;95245.38;;;41.05;17.40
6423;BME280;3244;42.708;23.288;2023-05-20T07:55:20;95245.78;;;42.16;16.07
6423;BME280;3244;42.708;23.288;2023-05-20T07:57:48;95242.50;;;42.64;16.19
6423;BME280;3244;42.708;23.288;2023-05-20T08:00:15;95243.47;;;42.58;15.76
6423;BME280;3244;42.708;23.288;2023-05-20T08:02:42;95241.84;;;42.02;16.63
6423;BME280;3244;42.708;23.288;2023-05-20T08:05:09;95245.50;;;41.84;15.97
6423;BME280;3244;42.708;23.288;2023-05-20T08:07:35;95240.44;;;42.16;16.90
6423;BME280;3244;42.708;23.288;2023-05-20T08:10:02;95233.13;;;43.49;15.57
6423;BME280;3244;42.708;23.288;2023-05-20T08:12:29;95239.50;;;42.99;15.54
6423;BME280;3244;42.708;23.288;2023-05-20T08:14:57;95236.41;;;42.30;16.29
6423;BME280;3244;42.708;23.288;2023-05-20T08:17:24;95231.44;;;41.89;16.38
6423;BME280;3244;42.708;23.288;2023-05-20T08:19:50;95236.38;;;41.97;16.37
6423;BME280;3244;42.708;23.288;2023-05-20T08:22:17;95236.00;;;42.77;17.00
6423;BME280;3244;42.708;23.288;2023-05-20T08:24:44;95238.03;;;44.16;15.97
6423;BME280;3244;42.708;23.288;2023-05-20T08:27:10;95231.28;;;45.96;13.75
6423;BME280;3244;42.708;23.288;2023-05-20T08:29:37;95230.88;;;45.21;14.23
6423;BME280;3244;42.708;23.288;2023-05-20T08:32:06;95232.63;;;46.08;14.13
6423;BME280;3244;42.708;23.288;2023-05-20T08:34:32;95225.25;;;43.16;15.52
6423;BME280;3244;42.708;23.288;2023-05-20T08:36:59;95231.91;;;41.86;17.03
6423;BME280;3244;42.708;23.288;2023-05-20T08:39:26;95227.81;;;39.99;18.12
6423;BME280;3244;42.708;23.288;2023-05-20T08:41:52;95230.34;;;40.64;18.45
6423;BME280;3244;42.708;23.288;2023-05-20T08:44:20;95222.28;;;41.85;17.08
6423;BME280;3244;42.708;23.288;2023-05-20T08:46:48;95226.19;;;38.90;19.31
6423;BME280;3244;42.708;23.288;2023-05-20T08:49:17;95236.78;;;35.72;22.59
6423;BME280;3244;42.708;23.288;2023-05-20T08:51:44;95237.00;;;36.43;23.15
6423;BME280;3244;42.708;23.288;2023-05-20T08:54:12;95237.66;;;34.64;24.63
6423;BME280;3244;42.708;23.288;2023-05-20T08:56:41;95241.53;;;34.34;24.22
6423;BME280;3244;42.708;23.288;2023-05-20T08:59:09;95232.31;;;36.19;22.72
6423;BME280;3244;42.708;23.288;2023-05-20T09:01:40;95225.69;;;37.70;21.01
6423;BME280;3244;42.708;23.288;2023-05-20T09:04:07;95226.84;;;36.27;22.02
6423;BME280;3244;42.708;23.288;2023-05-20T09:06:42;95219.47;;;37.52;21.26
6423;BME280;3244;42.708;23.288;2023-05-20T09:09:10;95213.44;;;37.69;20.79
6423;BME280;3244;42.708;23.288;2023-05-20T09:11:38;95218.28;;;37.03;21.51
6423;BME280;3244;42.708;23.288;2023-05-20T09:14:04;95220.50;;;37.51;21.18
6423;BME280;3244;42.708;23.288;2023-05-20T09:16:31;95211.38;;;38.64;20.31
6423;BME280;3244;42.708;23.288;2023-05-20T09:18:58;95207.50;;;38.85;19.80
6423;BME280;3244;42.708;23.288;2023-05-20T09:21:25;95198.19;;;37.90;20.66
6423;BME280;3244;42.708;23.288;2023-05-20T09:23:53;95211.19;;;36.32;21.34
6423;BME280;3244;42.708;23.288;2023-05-20T09:26:22;95203.63;;;34.13;24.37
6423;BME280;3244;42.708;23.288;2023-05-20T09:28:49;95203.75;;;34.05;24.46
6423;BME280;3244;42.708;23.288;2023-05-20T09:31:15;95205.19;;;33.80;25.02
6423;BME280;3244;42.708;23.288;2023-05-20T09:33:42;95190.03;;;33.03;26.02
6423;BME280;3244;42.708;23.288;2023-05-20T09:36:10;95205.47;;;32.03;26.91
6423;BME280;3244;42.708;23.288;2023-05-20T09:38:37;95205.38;;;31.14;29.41
6423;BME280;3244;42.708;23.288;2023-05-20T09:41:07;95203.41;;;29.07;31.61
6423;BME280;3244;42.708;23.288;2023-05-20T09:43:34;95210.03;;;27.48;34.90
6423;BME280;3244;42.708;23.288;2023-05-20T09:46:02;95210.94;;;26.21;36.99
6423;BME280;3244;42.708;23.288;2023-05-20T09:48:29;95201.84;;;26.25;37.85
6423;BME280;3244;42.708;23.288;2023-05-20T09:50:57;95206.09;;;26.26;38.10
6423;BME280;3244;42.708;23.288;2023-05-20T09:53:25;95194.03;;;25.88;39.36
6423;BME280;3244;42.708;23.288;2023-05-20T09:55:53;95194.63;;;25.34;39.39
6423;BME280;3244;42.708;23.288;2023-05-20T09:58:22;95185.59;;;25.19;40.33
6423;BME280;3244;42.708;23.288;2023-05-20T10:00:49;95191.63;;;25.19;39.43
6423;BME280;3244;42.708;23.288;2023-05-20T10:03:16;95202.16;;;24.49;41.15
6423;BME280;3244;42.708;23.288;2023-05-20T10:05:49;95189.34;;;23.96;42.47
6423;BME280;3244;42.708;23.288;2023-05-20T10:08:39;95186.19;;;23.92;42.32
6423;BME280;3244;42.708;23.288;2023-05-20T10:11:15;95187.38;;;24.39;41.04
6423;BME280;3244;42.708;23.288;2023-05-20T10:13:59;95177.47;;;24.83;39.62
6423;BME280;3244;42.708;23.288;2023-05-20T10:16:38;95188.41;;;24.77;39.79
6423;BME280;3244;42.708;23.288;2023-05-20T10:19:17;95170.78;;;24.90;40.11
6423;BME280;3244;42.708;23.288;2023-05-20T10:21:55;95158.47;;;25.02;39.57
6423;BME280;3244;42.708;23.288;2023-05-20T10:24:28;95163.44;;;24.95;40.64
6423;BME280;3244;42.708;23.288;2023-05-20T10:26:57;95162.13;;;24.61;40.71
6423;BME280;3244;42.708;23.288;2023-05-20T10:29:26;95151.44;;;24.64;40.92
6423;BME280;3244;42.708;23.288;2023-05-20T10:31:52;95152.97;;;24.86;38.98
6423;BME280;3244;42.708;23.288;2023-05-20T10:34:20;95152.41;;;24.63;39.56
6423;BME280;3244;42.708;23.288;2023-05-20T10:36:57;95153.44;;;24.31;40.92
6423;BME280;3244;42.708;23.288;2023-05-20T10:39:28;95135.41;;;24.39;38.65
6423;BME280;3244;42.708;23.288;2023-05-20T10:42:05;95149.41;;;24.77;40.10
6423;BME280;3244;42.708;23.288;2023-05-20T10:44:44;95139.47;;;25.11;37.32
6423;BME280;3244;42.708;23.288;2023-05-20T10:47:11;95130.81;;;24.82;38.43
6423;BME280;3244;42.708;23.288;2023-05-20T10:49:40;95124.22;;;24.49;37.71
6423;BME280;3244;42.708;23.288;2023-05-20T10:52:07;95123.16;;;24.21;38.96
6423;BME280;3244;42.708;23.288;2023-05-20T10:54:37;95118.22;;;24.48;39.35
6423;BME280;3244;42.708;23.288;2023-05-20T10:57:08;95117.94;;;24.61;39.33
6423;BME280;3244;42.708;23.288;2023-05-20T10:59:35;95123.97;;;24.61;37.98
6423;BME280;3244;42.708;23.288;2023-05-20T11:02:04;95116.97;;;24.42;38.36
6423;BME280;3244;42.708;23.288;2023-05-20T11:04:31;95117.56;;;24.16;39.01
6423;BME280;3244;42.708;23.288;2023-05-20T11:06:58;95118.47;;;24.05;39.55
6423;BME280;3244;42.708;23.288;2023-05-20T11:09:24;95120.47;;;23.92;39.18
6423;BME280;3244;42.708;23.288;2023-05-20T11:11:52;95110.91;;;23.41;40.07
6423;BME280;3244;42.708;23.288;2023-05-20T11:14:20;95112.06;;;23.48;41.49
6423;BME280;3244;42.708;23.288;2023-05-20T11:16:50;95108.97;;;23.85;41.55
6423;BME280;3244;42.708;23.288;2023-05-20T11:19:19;95116.81;;;24.04;40.71
6423;BME280;3244;42.708;23.288;2023-05-20T11:21:46;95102.31;;;24.32;40.23
6423;BME280;3244;42.708;23.288;2023-05-20T11:24:13;95103.00;;;24.53;40.73
6423;BME280;3244;42.708;23.288;2023-05-20T11:26:47;95094.97;;;24.66;39.18
6423;BME280;3244;42.708;23.288;2023-05-20T11:29:14;95095.25;;;24.63;39.83
6423;BME280;3244;42.708;23.288;2023-05-20T11:31:40;95087.53;;;24.32;40.38
6423;BME280;3244;42.708;23.288;2023-05-20T11:34:07;95081.16;;;24.06;41.51
6423;BME280;3244;42.708;23.288;2023-05-20T11:36:40;95085.47;;;24.26;41.89
6423;BME280;3244;42.708;23.288;2023-05-20T11:39:08;95074.44;;;24.24;40.36
6423;BME280;3244;42.708;23.288;2023-05-20T11:41:35;95077.44;;;24.58;40.74
6423;BME280;3244;42.708;23.288;2023-05-20T11:44:03;95070.91;;;24.64;40.67
6423;BME280;3244;42.708;23.288;2023-05-20T11:46:30;95065.41;;;24.38;41.02
6423;BME280;3244;42.708;23.288;2023-05-20T11:48:57;95064.03;;;24.24;41.61
6423;BME280;3244;42.708;23.288;2023-05-20T11:51:23;95067.81;;;24.20;41.08
6423;BME280;3244;42.708;23.288;2023-05-20T11:53:58;95069.94;;;24.46;41.32
6423;BME280;3244;42.708;23.288;2023-05-20T11:56:27;95073.34;;;24.36;41.42
6423;BME280;3244;42.708;23.288;2023-05-20T11:58:56;95063.53;;;24.50;42.13
6423;BME280;3244;42.708;23.288;2023-05-20T12:01:23;95058.88;;;24.72;40.74
6423;BME280;3244;42.708;23.288;2023-05-20T12:03:50;95059.66;;;24.54;41.16
6423;BME280;3244;42.708;23.288;2023-05-20T12:06:16;95048.44;;;24.34;41.42
6423;BME280;3244;42.708;23.288;2023-05-20T12:08:43;95056.66;;;24.39;42.39
6423;BME280;3244;42.708;23.288;2023-05-20T12:11:12;95044.38;;;24.41;42.21
6423;BME280;3244;42.708;23.288;2023-05-20T12:13:39;95050.34;;;24.22;40.80
6423;BME280;3244;42.708;23.288;2023-05-20T12:16:06;95048.59;;;24.32;40.16
6423;BME280;3244;42.708;23.288;2023-05-20T12:18:32;95042.44;;;24.33;40.63
6423;BME280;3244;42.708;23.288;2023-05-20T12:20:59;95058.03;;;24.33;41.36
6423;BME280;3244;42.708;23.288;2023-05-20T12:23:26;95056.16;;;24.05;40.87
6423;BME280;3244;42.708;23.288;2023-05-20T12:25:54;95056.97;;;23.96;40.99
6423;BME280;3244;42.708;23.288;2023-05-20T12:28:23;95052.00;;;23.83;41.08
6423;BME280;3244;42.708;23.288;2023-05-20T12:30:49;95064.97;;;23.73;41.60
6423;BME280;3244;42.708;23.288;2023-05-20T12:33:16;95059.66;;;23.54;42.09
6423;BME280;3244;42.708;23.288;2023-05-20T12:35:44;95074.22;;;23.46;40.89
6423;BME280;3244;42.708;23.288;2023-05-20T12:38:11;95074.59;;;23.41;41.10
6423;BME280;3244;42.708;23.288;2023-05-20T12:40:38;95088.47;;;23.30;41.49
6423;BME280;3244;42.708;23.288;2023-05-20T12:43:05;95086.28;;;23.26;42.77
6423;BME280;3244;42.708;23.288;2023-05-20T12:45:33;95093.97;;;22.95;44.57
6423;BME280;3244;42.708;23.288;2023-05-20T12:48:00;95085.66;;;22.49;43.86
6423;BME280;3244;42.708;23.288;2023-05-20T12:50:27;95090.69;;;22.07;43.60
6423;BME280;3244;42.708;23.288;2023-05-20T12:52:54;95083.50;;;22.22;43.11
6423;BME280;3244;42.708;23.288;2023-05-20T12:55:21;95090.09;;;22.15;41.86
6423;BME280;3244;42.708;23.288;2023-05-20T12:57:48;95086.56;;;22.04;41.92
6423;BME280;3244;42.708;23.288;2023-05-20T13:00:16;95092.69;;;21.92;42.21
6423;BME280;3244;42.708;23.288;2023-05-20T13:02:44;95084.34;;;21.66;42.94
6423;BME280;3244;42.708;23.288;2023-05-20T13:05:10;95093.75;;;21.67;43.24
6423;BME280;3244;42.708;23.288;2023-05-20T13:07:37;95089.75;;;21.52;43.11
6423;BME280;3244;42.708;23.288;2023-05-20T13:10:05;95084.81;;;21.27;43.28
6423;BME280;3244;42.708;23.288;2023-05-20T13:12:32;95073.53;;;21.28;43.39